createdAt,value
2023-02-26T00:00:15.708Z,102024.09
2023-02-26T00:02:20.499Z,102027.00
2023-02-26T00:04:22.376Z,102023.66
2023-02-26T00:06:25.963Z,102022.59
2023-02-26T00:08:28.331Z,102031.16
2023-02-26T00:10:30.282Z,102031.03
2023-02-26T00:12:32.540Z,102028.13
2023-02-26T00:14:34.973Z,102027.97
2023-02-26T00:16:37.388Z,102032.88
2023-02-26T00:18:39.788Z,102027.34
2023-02-26T00:20:44.157Z,102025.03
2023-02-26T00:22:48.749Z,102028.97
2023-02-26T00:24:50.757Z,102030.06
2023-02-26T00:26:59.345Z,102033.41
2023-02-26T00:29:04.370Z,102039.41
2023-02-26T00:31:08.453Z,102035.88
2023-02-26T00:33:12.175Z,102042.75
2023-02-26T00:35:22.032Z,102045.63
2023-02-26T00:37:31.750Z,102048.91
2023-02-26T00:39:44.232Z,102044.94
2023-02-26T00:41:46.448Z,102043.06
2023-02-26T00:43:49.677Z,102037.19
2023-02-26T00:45:56.524Z,102041.22
2023-02-26T00:48:05.505Z,102043.25
2023-02-26T00:50:14.831Z,102039.56
2023-02-26T00:52:31.500Z,102037.59
2023-02-26T00:54:33.366Z,102034.16
2023-02-26T00:56:35.255Z,102030.88
2023-02-26T00:58:37.190Z,102032.38
2023-02-26T01:00:39.500Z,102028.94
2023-02-26T01:02:42.042Z,102039.34
2023-02-26T01:04:44.713Z,102040.94
2023-02-26T01:06:52.360Z,102043.97
2023-02-26T01:09:01.594Z,102048.91
2023-02-26T01:11:03.854Z,102039.34
2023-02-26T01:13:06.310Z,102045.34
2023-02-26T01:15:09.084Z,102043.31
2023-02-26T01:17:17.671Z,102045.25
2023-02-26T01:19:29.984Z,102055.47
2023-02-26T01:21:39.106Z,102056.97
2023-02-26T01:23:46.927Z,102057.94
2023-02-26T01:25:57.863Z,102052.75
2023-02-26T01:28:00.171Z,102063.84
2023-02-26T01:30:02.729Z,102057.47
2023-02-26T01:32:24.728Z,102064.16
2023-02-26T01:34:35.393Z,102056.00
2023-02-26T01:36:43.372Z,102049.56
2023-02-26T01:39:03.640Z,102055.13
2023-02-26T01:41:13.549Z,102056.81
2023-02-26T01:43:23.244Z,102055.13
2023-02-26T01:45:33.724Z,102060.84
2023-02-26T01:47:45.631Z,102060.94
2023-02-26T01:49:48.066Z,102063.22
2023-02-26T01:51:51.738Z,102063.31
2023-02-26T01:53:53.606Z,102062.34
2023-02-26T01:56:00.454Z,102053.00
2023-02-26T01:58:03.246Z,102055.97
2023-02-26T02:00:06.432Z,102056.22
2023-02-26T02:02:10.989Z,102057.91
2023-02-26T02:04:15.869Z,102059.69
2023-02-26T02:06:23.445Z,102056.16
2023-02-26T02:08:25.728Z,102061.94
2023-02-26T02:10:28.394Z,102063.81
2023-02-26T02:12:38.247Z,102060.81
2023-02-26T02:14:40.854Z,102067.25
2023-02-26T02:16:53.605Z,102067.94
2023-02-26T02:19:06.517Z,102071.69
2023-02-26T02:21:14.586Z,102072.34
2023-02-26T02:23:19.933Z,102073.03
2023-02-26T02:25:28.075Z,102076.22
2023-02-26T02:27:44.092Z,102073.16
2023-02-26T02:29:49.549Z,102070.59
2023-02-26T02:32:02.470Z,102076.78
2023-02-26T02:34:17.444Z,102074.03
2023-02-26T02:36:28.514Z,102070.31
2023-02-26T02:38:37.018Z,102074.06
2023-02-26T02:40:46.236Z,102081.31
2023-02-26T02:42:58.264Z,102078.19
2023-02-26T02:45:08.760Z,102077.41
2023-02-26T02:47:12.846Z,102081.00
2023-02-26T02:49:24.830Z,102088.00
2023-02-26T02:51:33.844Z,102094.28
2023-02-26T02:53:41.079Z,102102.94
2023-02-26T02:55:53.728Z,102104.19
2023-02-26T02:58:01.896Z,102101.94
2023-02-26T03:00:10.842Z,102102.22
2023-02-26T03:02:20.395Z,102096.25
2023-02-26T03:04:22.207Z,102092.00
2023-02-26T03:06:24.724Z,102094.38
2023-02-26T03:08:31.768Z,102093.59
2023-02-26T03:10:33.923Z,102091.84
2023-02-26T03:12:36.327Z,102095.34
2023-02-26T03:14:38.799Z,102099.97
2023-02-26T03:16:46.820Z,102097.91
2023-02-26T03:18:53.122Z,102100.88
2023-02-26T03:21:01.146Z,102092.09
2023-02-26T03:23:09.228Z,102091.63
2023-02-26T03:25:13.216Z,102094.34
2023-02-26T03:27:24.406Z,102094.25
2023-02-26T03:29:27.051Z,102092.19
2023-02-26T03:31:36.198Z,102101.84
2023-02-26T03:33:48.906Z,102098.00
2023-02-26T03:35:59.651Z,102096.03
2023-02-26T03:38:09.995Z,102094.84
2023-02-26T03:40:21.824Z,102097.41
2023-02-26T03:42:27.217Z,102098.59
2023-02-26T03:44:35.137Z,102106.91
2023-02-26T03:46:43.309Z,102101.63
2023-02-26T03:48:46.977Z,102111.25
2023-02-26T03:50:54.793Z,102107.44
2023-02-26T03:53:02.179Z,102119.91
2023-02-26T03:55:10.910Z,102122.34
2023-02-26T03:57:15.008Z,102118.44
2023-02-26T03:59:17.647Z,102126.09
2023-02-26T04:01:26.177Z,102118.44
2023-02-26T04:03:35.583Z,102126.75
2023-02-26T04:05:42.310Z,102128.66
2023-02-26T04:07:46.316Z,102130.41
2023-02-26T04:09:50.996Z,102142.31
2023-02-26T04:11:53.900Z,102144.63
2023-02-26T04:13:55.673Z,102147.69
2023-02-26T04:15:57.515Z,102139.06
2023-02-26T04:18:01.582Z,102144.66
2023-02-26T04:20:08.129Z,102139.63
2023-02-26T04:22:10.563Z,102146.50
2023-02-26T04:24:12.352Z,102154.38
2023-02-26T04:26:14.210Z,102148.00
2023-02-26T04:28:16.625Z,102148.00
2023-02-26T04:30:18.768Z,102142.28
2023-02-26T04:32:20.691Z,102153.19
2023-02-26T04:34:22.523Z,102154.69
2023-02-26T04:36:24.711Z,102149.75
2023-02-26T04:38:27.324Z,102154.97
2023-02-26T04:40:29.138Z,102159.28
2023-02-26T04:42:30.992Z,102163.00
2023-02-26T04:44:32.806Z,102160.06
2023-02-26T04:46:34.589Z,102159.50
2023-02-26T04:48:36.396Z,102164.47
2023-02-26T04:50:38.162Z,102159.19
2023-02-26T04:52:42.051Z,102156.81
2023-02-26T04:54:43.868Z,102162.53
2023-02-26T04:56:45.653Z,102163.78
2023-02-26T04:58:47.450Z,102164.47
2023-02-26T05:00:51.762Z,102165.00
2023-02-26T05:02:53.543Z,102166.53
2023-02-26T05:04:55.362Z,102160.25
2023-02-26T05:06:57.253Z,102174.88
2023-02-26T05:08:59.006Z,102180.50
2023-02-26T05:11:00.860Z,102184.81
2023-02-26T05:13:02.754Z,102189.13
2023-02-26T05:15:06.023Z,102181.66
2023-02-26T05:17:08.090Z,102190.31
2023-02-26T05:19:09.868Z,102192.88
2023-02-26T05:21:11.699Z,102189.31
2023-02-26T05:23:13.481Z,102198.66
2023-02-26T05:25:15.340Z,102202.47
2023-02-26T05:27:17.177Z,102203.75
2023-02-26T05:29:19.613Z,102205.50
2023-02-26T05:31:23.781Z,102204.63
2023-02-26T05:33:26.766Z,102202.06
2023-02-26T05:35:28.673Z,102201.47
2023-02-26T05:37:30.645Z,102212.88
2023-02-26T05:39:32.425Z,102210.31
2023-02-26T05:41:34.323Z,102211.91
2023-02-26T05:43:36.136Z,102215.44
2023-02-26T05:45:37.976Z,102217.00
2023-02-26T05:47:40.044Z,102215.00
2023-02-26T05:49:41.968Z,102217.66
2023-02-26T05:51:43.779Z,102221.97
2023-02-26T05:53:46.121Z,102222.09
2023-02-26T05:55:50.488Z,102226.97
2023-02-26T05:57:52.292Z,102225.41
2023-02-26T05:59:54.102Z,102225.63
2023-02-26T06:01:56.041Z,102231.41
2023-02-26T06:03:57.824Z,102232.78
2023-02-26T06:05:59.679Z,102237.09
2023-02-26T06:08:01.497Z,102237.78
2023-02-26T06:10:04.111Z,102238.06
2023-02-26T06:12:06.804Z,102245.81
2023-02-26T06:14:08.644Z,102245.81
2023-02-26T06:16:10.469Z,102240.53
2023-02-26T06:18:12.319Z,102242.28
2023-02-26T06:20:16.232Z,102245.81
2023-02-26T06:22:18.660Z,102247.09
2023-02-26T06:24:20.568Z,102257.41
2023-02-26T06:26:25.215Z,102258.97
2023-02-26T06:28:27.287Z,102260.75
2023-02-26T06:30:29.234Z,102264.28
2023-02-26T06:32:31.239Z,102257.09
2023-02-26T06:34:33.839Z,102264.75
2023-02-26T06:36:35.725Z,102262.31
2023-02-26T06:38:37.622Z,102268.22
2023-02-26T06:40:39.712Z,102264.63
2023-02-26T06:42:41.701Z,102272.00
2023-02-26T06:44:43.499Z,102274.81
2023-02-26T06:46:47.741Z,102270.38
2023-02-26T06:48:49.524Z,102283.44
2023-02-26T06:50:51.433Z,102278.34
2023-02-26T06:52:53.216Z,102280.31
2023-02-26T06:54:55.048Z,102283.94
2023-02-26T06:56:57.890Z,102291.47
2023-02-26T06:59:00.059Z,102284.91
2023-02-26T07:01:04.779Z,102289.22
2023-02-26T07:03:09.432Z,102286.38
2023-02-26T07:05:13.689Z,102290.31
2023-02-26T07:07:16.402Z,102290.53
2023-02-26T07:09:20.206Z,102294.97
2023-02-26T07:11:24.655Z,102302.72
2023-02-26T07:13:26.819Z,102316.06
2023-02-26T07:15:29.587Z,102306.72
2023-02-26T07:17:32.008Z,102317.13
2023-02-26T07:19:33.853Z,102320.66
2023-02-26T07:21:35.647Z,102320.03
2023-02-26T07:23:37.466Z,102329.78
2023-02-26T07:25:39.357Z,102331.75
2023-02-26T07:27:43.820Z,102335.25
2023-02-26T07:29:45.809Z,102339.78
2023-02-26T07:31:47.802Z,102342.91
2023-02-26T07:33:49.665Z,102343.63
2023-02-26T07:35:51.503Z,102352.06
2023-02-26T07:37:55.525Z,102355.72
2023-02-26T07:39:57.330Z,102352.06
2023-02-26T07:41:59.137Z,102362.91
2023-02-26T07:44:03.126Z,102364.38
2023-02-26T07:46:05.492Z,102373.91
2023-02-26T07:48:07.842Z,102380.34
2023-02-26T07:50:10.984Z,102379.66
2023-02-26T07:52:15.111Z,102380.34
2023-02-26T07:54:17.166Z,102377.00
2023-02-26T07:56:18.937Z,102373.84
2023-02-26T07:58:20.849Z,102377.19
2023-02-26T08:00:22.995Z,102382.03
2023-02-26T08:02:25.084Z,102377.81
2023-02-26T08:04:27.139Z,102381.38
2023-02-26T08:06:29.671Z,102387.34
2023-02-26T08:08:33.311Z,102389.91
2023-02-26T08:10:35.144Z,102388.56
2023-02-26T08:12:37.023Z,102386.91
2023-02-26T08:14:41.585Z,102396.09
2023-02-26T08:16:43.374Z,102408.50
2023-02-26T08:18:45.566Z,102396.94
2023-02-26T08:20:47.526Z,102400.59
2023-02-26T08:22:51.528Z,102407.19
2023-02-26T08:24:53.465Z,102410.13
2023-02-26T08:26:56.635Z,102406.50
2023-02-26T08:28:58.438Z,102409.38
2023-02-26T08:31:01.563Z,102402.91
2023-02-26T08:33:03.650Z,102418.53
2023-02-26T08:35:06.454Z,102421.00
2023-02-26T08:37:09.376Z,102415.78
2023-02-26T08:39:11.134Z,102424.44
2023-02-26T08:41:13.069Z,102430.31
2023-02-26T08:43:14.859Z,102427.41
2023-02-26T08:45:17.095Z,102425.72
2023-02-26T08:47:28.210Z,102428.81
2023-02-26T08:49:30.845Z,102431.75
2023-02-26T08:51:34.973Z,102425.06
2023-02-26T08:53:36.940Z,102423.63
2023-02-26T08:55:38.747Z,102436.41
2023-02-26T08:57:43.636Z,102446.03
2023-02-26T08:59:45.527Z,102443.38
2023-02-26T09:01:47.698Z,102439.34
2023-02-26T09:03:49.597Z,102451.03
2023-02-26T09:05:52.023Z,102448.47
2023-02-26T09:07:53.973Z,102447.41
2023-02-26T09:09:55.788Z,102445.47
2023-02-26T09:11:59.053Z,102451.66
2023-02-26T09:14:02.395Z,102455.59
2023-02-26T09:16:05.043Z,102458.63
2023-02-26T09:18:15.431Z,102448.72
2023-02-26T09:20:17.869Z,102460.13
2023-02-26T09:22:19.732Z,102464.44
2023-02-26T09:24:21.857Z,102466.34
2023-02-26T09:26:24.370Z,102466.16
2023-02-26T09:28:26.587Z,102469.88
2023-02-26T09:30:28.699Z,102459.66
2023-02-26T09:32:30.747Z,102458.88
2023-02-26T09:34:32.692Z,102455.31
2023-02-26T09:36:34.608Z,102464.53
2023-02-26T09:38:36.734Z,102457.34
2023-02-26T09:40:42.105Z,102462.00
2023-02-26T09:42:54.643Z,102469.69
2023-02-26T09:45:00.395Z,102473.78
2023-02-26T09:47:06.953Z,102468.50
2023-02-26T09:49:15.160Z,102471.41
2023-02-26T09:51:25.114Z,102466.38
2023-02-26T09:53:31.669Z,102475.50
2023-02-26T09:55:36.749Z,102468.16
2023-02-26T09:57:43.888Z,102482.41
2023-02-26T09:59:45.797Z,102474.03
2023-02-26T10:01:59.804Z,102468.94
2023-02-26T10:04:12.305Z,102488.13
2023-02-26T10:06:22.652Z,102486.88
2023-02-26T10:08:35.704Z,102494.69
2023-02-26T10:11:03.872Z,102490.47
2023-02-26T10:13:06.238Z,102494.88
2023-02-26T10:15:11.059Z,102491.59
2023-02-26T10:17:21.789Z,102496.75
2023-02-26T10:19:30.944Z,102502.84
2023-02-26T10:21:39.648Z,102500.09
2023-02-26T10:23:48.973Z,102510.91
2023-02-26T10:25:58.411Z,102508.09
2023-02-26T10:28:20.192Z,102512.13
2023-02-26T10:30:34.104Z,102523.66
2023-02-26T10:32:39.778Z,102519.28
2023-02-26T10:34:48.070Z,102523.03
2023-02-26T10:36:51.297Z,102528.47
2023-02-26T10:38:58.879Z,102528.38
2023-02-26T10:41:11.766Z,102537.50
2023-02-26T10:43:20.027Z,102530.16
2023-02-26T10:45:26.593Z,102538.22
2023-02-26T10:47:42.371Z,102539.59
2023-02-26T10:49:52.654Z,102538.88
2023-02-26T10:51:55.322Z,102535.81
2023-02-26T10:54:04.171Z,102543.06
2023-02-26T10:56:12.988Z,102548.63
2023-02-26T10:58:18.250Z,102563.25
2023-02-26T11:00:21.473Z,102553.19
2023-02-26T11:02:29.600Z,102548.41
2023-02-26T11:04:31.492Z,102554.44
2023-02-26T11:06:40.444Z,102553.22
2023-02-26T11:08:45.720Z,102551.97
2023-02-26T11:10:52.709Z,102550.69
2023-02-26T11:12:54.590Z,102557.00
2023-02-26T11:14:56.488Z,102547.78
2023-02-26T11:17:02.559Z,102565.75
2023-02-26T11:19:06.655Z,102553.16
2023-02-26T11:21:17.977Z,102549.50
2023-02-26T11:23:23.254Z,102566.09
2023-02-26T11:25:30.309Z,102564.72
2023-02-26T11:27:36.087Z,102564.09
2023-02-26T11:29:41.114Z,102569.88
2023-02-26T11:31:45.032Z,102566.00
2023-02-26T11:33:53.476Z,102561.69
2023-02-26T11:36:04.316Z,102570.53
2023-02-26T11:38:10.438Z,102560.41
2023-02-26T11:40:17.348Z,102567.53
2023-02-26T11:42:19.442Z,102567.88
2023-02-26T11:44:30.217Z,102570.91
2023-02-26T11:46:45.077Z,102565.53
2023-02-26T11:48:48.737Z,102578.63
2023-02-26T11:51:00.562Z,102573.72
2023-02-26T11:53:08.361Z,102571.56
2023-02-26T11:55:18.911Z,102577.09
2023-02-26T11:57:25.727Z,102575.72
2023-02-26T11:59:30.790Z,102581.13
2023-02-26T12:01:36.844Z,102587.22
2023-02-26T12:03:41.149Z,102590.19
2023-02-26T12:05:43.382Z,102599.00
2023-02-26T12:07:47.085Z,102594.91
2023-02-26T12:09:52.008Z,102595.47
2023-02-26T12:11:57.640Z,102585.91
2023-02-26T12:14:05.859Z,102603.41
2023-02-26T12:16:23.106Z,102594.63
2023-02-26T12:18:31.263Z,102598.69
2023-02-26T12:20:47.757Z,102592.03
2023-02-26T12:22:56.294Z,102600.53
2023-02-26T12:25:04.324Z,102600.84
2023-02-26T12:27:16.908Z,102596.06
2023-02-26T12:29:28.497Z,102596.50
2023-02-26T12:31:36.595Z,102594.47
2023-02-26T12:33:39.685Z,102600.41
2023-02-26T12:35:48.408Z,102615.03
2023-02-26T12:37:56.483Z,102608.03
2023-02-26T12:40:03.017Z,102610.31
2023-02-26T12:42:11.073Z,102617.38
2023-02-26T12:44:19.203Z,102608.06
2023-02-26T12:46:25.693Z,102620.13
2023-02-26T12:48:33.984Z,102618.75
2023-02-26T12:50:42.146Z,102628.31
2023-02-26T12:52:45.901Z,102620.66
2023-02-26T12:54:56.350Z,102614.22
2023-02-26T12:56:59.176Z,102617.88
2023-02-26T12:59:03.848Z,102614.69
2023-02-26T13:01:12.102Z,102612.88
2023-02-26T13:03:18.135Z,102619.25
2023-02-26T13:05:28.558Z,102618.59
2023-02-26T13:07:42.328Z,102627.91
2023-02-26T13:09:47.729Z,102627.44
2023-02-26T13:11:59.116Z,102635.94
2023-02-26T13:14:14.928Z,102638.00
2023-02-26T13:16:23.154Z,102642.69
2023-02-26T13:18:27.893Z,102651.72
2023-02-26T13:20:30.194Z,102644.50
2023-02-26T13:22:39.741Z,102639.69
2023-02-26T13:24:52.120Z,102643.72
2023-02-26T13:26:55.773Z,102637.34
2023-02-26T13:29:03.342Z,102641.06
2023-02-26T13:31:13.165Z,102638.06
2023-02-26T13:33:20.928Z,102629.47
2023-02-26T13:35:27.270Z,102635.28
2023-02-26T13:37:34.439Z,102648.88
2023-02-26T13:39:42.896Z,102644.00
2023-02-26T13:41:51.395Z,102641.16
2023-02-26T13:43:59.453Z,102649.38
2023-02-26T13:46:08.041Z,102643.72
2023-02-26T13:48:13.556Z,102637.72
2023-02-26T13:50:26.521Z,102639.03
2023-02-26T13:52:32.344Z,102631.00
2023-02-26T13:54:43.897Z,102629.91
2023-02-26T13:56:53.235Z,102621.41
2023-02-26T13:59:03.209Z,102624.56
2023-02-26T14:01:08.734Z,102636.16
2023-02-26T14:03:15.598Z,102630.31
2023-02-26T14:05:23.878Z,102628.63
2023-02-26T14:07:32.067Z,102629.34
2023-02-26T14:09:40.867Z,102627.78
2023-02-26T14:11:59.063Z,102616.06
2023-02-26T14:14:06.083Z,102623.59
2023-02-26T14:16:14.350Z,102609.06
2023-02-26T14:18:20.814Z,102622.16
2023-02-26T14:20:27.421Z,102617.81
2023-02-26T14:22:30.231Z,102627.28
2023-02-26T14:24:37.518Z,102627.06
2023-02-26T14:26:44.001Z,102629.84
2023-02-26T14:28:57.167Z,102630.31
2023-02-26T14:31:08.699Z,102626.31
2023-02-26T14:33:18.104Z,102627.56
2023-02-26T14:35:25.572Z,102620.16
2023-02-26T14:37:29.142Z,102625.56
2023-02-26T14:39:39.174Z,102637.78
2023-02-26T14:41:42.050Z,102627.63
2023-02-26T14:43:57.360Z,102638.88
2023-02-26T14:45:59.398Z,102631.09
2023-02-26T14:48:05.826Z,102644.53
2023-02-26T14:50:08.763Z,102635.84
2023-02-26T14:52:12.512Z,102630.72
2023-02-26T14:54:20.707Z,102635.41
2023-02-26T14:56:28.885Z,102632.47
2023-02-26T14:58:37.031Z,102634.78
2023-02-26T15:00:42.463Z,102635.84
2023-02-26T15:02:50.617Z,102638.16
2023-02-26T15:04:57.342Z,102636.25
2023-02-26T15:07:06.630Z,102633.84
2023-02-26T15:09:11.985Z,102644.03
2023-02-26T15:11:17.404Z,102642.34
2023-02-26T15:13:22.879Z,102637.94
2023-02-26T15:15:30.979Z,102646.81
2023-02-26T15:17:36.151Z,102641.38
2023-02-26T15:19:50.335Z,102644.31
2023-02-26T15:22:00.129Z,102646.88
2023-02-26T15:24:04.872Z,102649.28
2023-02-26T15:26:09.596Z,102647.13
2023-02-26T15:28:19.340Z,102664.53
2023-02-26T15:30:23.369Z,102665.75
2023-02-26T15:32:30.618Z,102666.34
2023-02-26T15:34:34.073Z,102668.47
2023-02-26T15:36:36.167Z,102666.34
2023-02-26T15:38:42.622Z,102665.97
2023-02-26T15:40:45.454Z,102672.91
2023-02-26T15:42:51.997Z,102672.78
2023-02-26T15:45:02.014Z,102670.13
2023-02-26T15:47:05.488Z,102665.13
2023-02-26T15:49:12.094Z,102670.97
2023-02-26T15:51:17.718Z,102672.13
2023-02-26T15:53:29.326Z,102672.22
2023-02-26T15:55:36.352Z,102673.97
2023-02-26T15:57:38.580Z,102673.72
2023-02-26T15:59:46.565Z,102673.78
2023-02-26T16:01:50.482Z,102662.44
2023-02-26T16:03:58.551Z,102675.53
2023-02-26T16:06:01.039Z,102663.78
2023-02-26T16:08:03.204Z,102657.84
2023-02-26T16:10:08.718Z,102673.25
2023-02-26T16:12:16.536Z,102674.00
2023-02-26T16:14:24.720Z,102674.16
2023-02-26T16:16:30.365Z,102672.16
2023-02-26T16:18:35.756Z,102669.75
2023-02-26T16:20:44.954Z,102666.06
2023-02-26T16:22:50.657Z,102673.19
2023-02-26T16:24:59.462Z,102658.69
2023-02-26T16:27:07.207Z,102667.28
2023-02-26T16:29:15.283Z,102662.03
2023-02-26T16:31:20.706Z,102664.38
2023-02-26T16:33:25.226Z,102672.88
2023-02-26T16:35:34.941Z,102666.06
2023-02-26T16:37:38.001Z,102666.50
2023-02-26T16:39:45.624Z,102662.91
2023-02-26T16:42:00.826Z,102672.53
2023-02-26T16:44:25.123Z,102668.38
2023-02-26T16:46:31.601Z,102666.13
2023-02-26T16:48:44.157Z,102661.13
2023-02-26T16:51:04.204Z,102670.16
2023-02-26T16:53:09.144Z,102678.06
2023-02-26T16:55:18.761Z,102680.16
2023-02-26T16:57:27.424Z,102675.97
2023-02-26T16:59:35.377Z,102674.56
2023-02-26T17:01:41.238Z,102685.38
2023-02-26T17:03:50.723Z,102689.81
2023-02-26T17:05:56.163Z,102685.13
2023-02-26T17:08:08.709Z,102676.84
2023-02-26T17:10:19.532Z,102677.56
2023-02-26T17:12:28.974Z,102684.53
2023-02-26T17:14:40.288Z,102688.06
2023-02-26T17:16:44.594Z,102685.13
2023-02-26T17:18:46.538Z,102685.31
2023-02-26T17:20:50.119Z,102687.69
2023-02-26T17:22:53.251Z,102689.28
2023-02-26T17:24:55.584Z,102689.63
2023-02-26T17:26:57.922Z,102693.81
2023-02-26T17:28:59.918Z,102699.13
2023-02-26T17:31:02.682Z,102699.22
2023-02-26T17:33:05.110Z,102704.88
2023-02-26T17:35:08.674Z,102707.72
2023-02-26T17:37:13.389Z,102706.66
2023-02-26T17:39:15.964Z,102709.22
2023-02-26T17:41:19.105Z,102711.22
2023-02-26T17:43:22.004Z,102709.63
2023-02-26T17:45:24.432Z,102712.81
2023-02-26T17:47:27.293Z,102723.88
2023-02-26T17:49:29.460Z,102723.41
2023-02-26T17:51:31.695Z,102726.88
2023-02-26T17:53:41.336Z,102728.47
2023-02-26T17:55:45.259Z,102729.19
2023-02-26T17:57:47.898Z,102731.09
2023-02-26T17:59:49.929Z,102741.63
2023-02-26T18:01:53.509Z,102744.34
2023-02-26T18:03:55.938Z,102737.13
2023-02-26T18:05:59.958Z,102739.63
2023-02-26T18:08:02.091Z,102750.19
2023-02-26T18:10:04.983Z,102744.78
2023-02-26T18:12:09.269Z,102746.78
2023-02-26T18:14:11.498Z,102761.03
2023-02-26T18:16:18.903Z,102758.25
2023-02-26T18:18:22.533Z,102759.44
2023-02-26T18:20:24.449Z,102765.13
2023-02-26T18:22:27.628Z,102764.78
2023-02-26T18:24:29.705Z,102757.34
2023-02-26T18:26:33.627Z,102762.59
2023-02-26T18:28:35.656Z,102758.09
2023-02-26T18:30:40.710Z,102760.91
2023-02-26T18:32:42.718Z,102756.50
2023-02-26T18:34:44.893Z,102752.66
2023-02-26T18:36:49.347Z,102753.03
2023-02-26T18:38:51.765Z,102751.38
2023-02-26T18:40:57.532Z,102747.22
2023-02-26T18:42:59.742Z,102757.88
2023-02-26T18:45:01.804Z,102755.69
2023-02-26T18:47:04.426Z,102753.63
2023-02-26T18:49:17.118Z,102752.75
2023-02-26T18:51:19.129Z,102752.75
2023-02-26T18:53:23.792Z,102757.88
2023-02-26T18:55:26.463Z,102758.84
2023-02-26T18:57:28.473Z,102754.41
2023-02-26T18:59:30.503Z,102764.56
2023-02-26T19:01:32.891Z,102761.09
2023-02-26T19:03:35.538Z,102762.38
2023-02-26T19:05:37.960Z,102770.09
2023-02-26T19:07:40.321Z,102772.25
2023-02-26T19:09:42.160Z,102774.22
2023-02-26T19:11:44.164Z,102772.53
2023-02-26T19:13:47.162Z,102772.44
2023-02-26T19:15:49.747Z,102772.53
2023-02-26T19:17:52.126Z,102772.84
2023-02-26T19:19:54.102Z,102773.44
2023-02-26T19:21:56.059Z,102780.16
2023-02-26T19:23:58.649Z,102774.75
2023-02-26T19:26:00.597Z,102779.97
2023-02-26T19:28:04.136Z,102774.03
2023-02-26T19:30:07.400Z,102778.19
2023-02-26T19:32:09.722Z,102781.53
2023-02-26T19:34:12.861Z,102779.69
2023-02-26T19:36:15.237Z,102780.25
2023-02-26T19:38:17.657Z,102783.22
2023-02-26T19:40:20.335Z,102778.97
2023-02-26T19:42:22.546Z,102782.03
2023-02-26T19:44:27.577Z,102780.88
2023-02-26T19:46:29.677Z,102790.31
2023-02-26T19:48:31.972Z,102795.22
2023-02-26T19:50:34.156Z,102796.88
2023-02-26T19:52:37.373Z,102796.09
2023-02-26T19:54:41.587Z,102798.66
2023-02-26T19:56:44.208Z,102802.00
2023-02-26T19:58:46.023Z,102806.16
2023-02-26T20:00:47.982Z,102800.94
2023-02-26T20:02:50.237Z,102802.63
2023-02-26T20:04:52.103Z,102801.91
2023-02-26T20:06:53.989Z,102798.75
2023-02-26T20:08:55.864Z,102807.72
2023-02-26T20:11:03.220Z,102807.81
2023-02-26T20:13:05.277Z,102811.81
2023-02-26T20:15:08.847Z,102806.78
2023-02-26T20:17:10.692Z,102802.03
2023-02-26T20:19:12.655Z,102817.50
2023-02-26T20:21:14.656Z,102823.59
2023-02-26T20:23:16.583Z,102827.75
2023-02-26T20:25:20.027Z,102821.31
2023-02-26T20:27:23.439Z,102823.56
2023-02-26T20:29:25.638Z,102827.13
2023-02-26T20:31:28.750Z,102828.78
2023-02-26T20:33:33.385Z,102831.25
2023-02-26T20:35:35.810Z,102831.88
2023-02-26T20:37:37.792Z,102840.44
2023-02-26T20:39:39.667Z,102835.91
2023-02-26T20:41:44.011Z,102835.81
2023-02-26T20:43:46.004Z,102838.03
2023-02-26T20:45:49.735Z,102849.16
2023-02-26T20:47:51.730Z,102846.41
2023-02-26T20:49:53.891Z,102846.19
2023-02-26T20:51:55.966Z,102847.31
2023-02-26T20:53:57.815Z,102850.75
2023-02-26T20:56:00.217Z,102858.44
2023-02-26T20:58:02.588Z,102860.16
2023-02-26T21:00:10.722Z,102852.47
2023-02-26T21:02:15.591Z,102858.47
2023-02-26T21:04:18.245Z,102856.50
2023-02-26T21:06:20.114Z,102857.16
2023-02-26T21:08:22.655Z,102855.75
2023-02-26T21:10:24.586Z,102853.03
2023-02-26T21:12:28.545Z,102850.19
2023-02-26T21:14:32.990Z,102855.50
2023-02-26T21:16:39.845Z,102854.19
2023-02-26T21:18:41.715Z,102855.41
2023-02-26T21:20:45.801Z,102858.75
2023-02-26T21:22:47.868Z,102857.19
2023-02-26T21:24:49.995Z,102860.53
2023-02-26T21:26:52.032Z,102861.31
2023-02-26T21:28:54.247Z,102867.22
2023-02-26T21:31:00.007Z,102860.53
2023-02-26T21:33:02.289Z,102866.31
2023-02-26T21:35:04.528Z,102861.41
2023-02-26T21:37:10.044Z,102865.66
2023-02-26T21:39:12.151Z,102868.09
2023-02-26T21:41:14.204Z,102869.56
2023-02-26T21:43:16.171Z,102868.53
2023-02-26T21:45:18.412Z,102866.06
2023-02-26T21:47:22.388Z,102862.44
2023-02-26T21:49:26.375Z,102864.31
2023-02-26T21:51:28.680Z,102863.00
2023-02-26T21:53:30.776Z,102860.56
2023-02-26T21:55:33.209Z,102865.88
2023-02-26T21:57:35.089Z,102866.66
2023-02-26T21:59:36.997Z,102870.00
2023-02-26T22:01:38.828Z,102865.88
2023-02-26T22:03:40.583Z,102866.56
2023-02-26T22:05:42.477Z,102869.09
2023-02-26T22:07:46.543Z,102860.09
2023-02-26T22:09:49.175Z,102869.63
2023-02-26T22:11:51.103Z,102862.13
2023-02-26T22:13:53.262Z,102860.88
2023-02-26T22:15:55.222Z,102860.09
2023-02-26T22:17:57.568Z,102866.31
2023-02-26T22:19:59.597Z,102864.22
2023-02-26T22:22:04.402Z,102863.09
2023-02-26T22:24:08.514Z,102857.88
2023-02-26T22:26:11.456Z,102857.88
2023-02-26T22:28:13.591Z,102859.53
2023-02-26T22:30:19.384Z,102862.31
2023-02-26T22:32:22.830Z,102858.53
2023-02-26T22:34:25.802Z,102862.88
2023-02-26T22:36:32.662Z,102866.75
2023-02-26T22:38:35.800Z,102862.75
2023-02-26T22:40:40.314Z,102866.41
2023-02-26T22:42:44.272Z,102866.75
2023-02-26T22:44:46.853Z,102865.97
2023-02-26T22:46:50.356Z,102864.31
2023-02-26T22:48:52.396Z,102865.41
2023-02-26T22:50:54.187Z,102871.19
2023-02-26T22:52:56.122Z,102864.19
2023-02-26T22:54:58.169Z,102869.97
2023-02-26T22:57:00.583Z,102870.72
2023-02-26T22:59:04.667Z,102874.16
2023-02-26T23:01:07.850Z,102875.72
2023-02-26T23:03:09.796Z,102874.84
2023-02-26T23:05:12.358Z,102881.28
2023-02-26T23:07:14.227Z,102882.41
2023-02-26T23:09:16.184Z,102886.50
2023-02-26T23:11:18.153Z,102889.59
2023-02-26T23:13:20.001Z,102895.72
2023-02-26T23:15:21.956Z,102895.47
2023-02-26T23:17:23.871Z,102900.25
2023-02-26T23:19:26.362Z,102901.69
2023-02-26T23:21:29.023Z,102897.13
2023-02-26T23:23:31.522Z,102895.00
2023-02-26T23:25:33.466Z,102906.88
2023-02-26T23:27:35.408Z,102909.44
2023-02-26T23:29:39.497Z,102908.88
2023-02-26T23:31:42.045Z,102908.19
2023-02-26T23:33:44.367Z,102904.28
2023-02-26T23:35:48.554Z,102906.28
2023-02-26T23:37:50.760Z,102908.06
2023-02-26T23:39:53.059Z,102904.16
2023-02-26T23:41:56.477Z,102902.84
2023-02-26T23:43:58.381Z,102898.75
2023-02-26T23:46:00.296Z,102906.53